sensor_id;sensor_type;location;lat;lon;timestamp;temperature;humidity
38237;DHT22;50101;49.438;11.098;2023-07-13T00:01:46;25.90;59.80
38237;DHT22;50101;49.438;11.098;2023-07-13T00:04:17;25.90;59.30
38237;DHT22;50101;49.438;11.098;2023-07-13T00:06:45;25.90;59.80
38237;DHT22;50101;49.438;11.098;2023-07-13T00:09:13;25.90;59.80
38237;DHT22;50101;49.438;11.098;2023-07-13T00:11:41;25.90;59.70
38237;DHT22;50101;49.438;11.098;2023-07-13T00:14:08;25.90;59.70
38237;DHT22;50101;49.438;11.098;2023-07-13T00:16:37;25.80;59.70
38237;DHT22;50101;49.438;11.098;2023-07-13T00:19:04;25.80;59.70
38237;DHT22;50101;49.438;11.098;2023-07-13T00:21:32;25.80;59.70
38237;DHT22;50101;49.438;11.098;2023-07-13T00:23:58;25.90;59.20
38237;DHT22;50101;49.438;11.098;2023-07-13T00:26:27;25.90;59.70
38237;DHT22;50101;49.438;11.098;2023-07-13T00:28:53;25.90;60.40
38237;DHT22;50101;49.438;11.098;2023-07-13T00:31:20;25.90;59.70
38237;DHT22;50101;49.438;11.098;2023-07-13T00:33:47;25.80;59.60
38237;DHT22;50101;49.438;11.098;2023-07-13T00:36:14;25.90;59.70
38237;DHT22;50101;49.438;11.098;2023-07-13T00:38:41;25.80;59.60
38237;DHT22;50101;49.438;11.098;2023-07-13T00:41:08;25.90;59.70
38237;DHT22;50101;49.438;11.098;2023-07-13T00:43:34;25.80;59.50
38237;DHT22;50101;49.438;11.098;2023-07-13T00:48:32;25.80;59.60
38237;DHT22;50101;49.438;11.098;2023-07-13T00:51:00;25.90;59.60
38237;DHT22;50101;49.438;11.098;2023-07-13T00:53:29;25.80;59.00
38237;DHT22;50101;49.438;11.098;2023-07-13T00:55:57;25.80;59.60
38237;DHT22;50101;49.438;11.098;2023-07-13T00:58:25;25.80;59.50
38237;DHT22;50101;49.438;11.098;2023-07-13T01:00:53;25.80;59.50
38237;DHT22;50101;49.438;11.098;2023-07-13T01:03:20;25.80;59.50
38237;DHT22;50101;49.438;11.098;2023-07-13T01:05:48;25.80;59.50
38237;DHT22;50101;49.438;11.098;2023-07-13T01:08:16;25.80;59.50
38237;DHT22;50101;49.438;11.098;2023-07-13T01:10:56;25.80;59.50
38237;DHT22;50101;49.438;11.098;2023-07-13T01:13:25;25.80;59.50
38237;DHT22;50101;49.438;11.098;2023-07-13T01:15:52;25.80;59.50
38237;DHT22;50101;49.438;11.098;2023-07-13T01:18:25;25.80;59.50
38237;DHT22;50101;49.438;11.098;2023-07-13T01:20:58;25.80;59.40
38237;DHT22;50101;49.438;11.098;2023-07-13T01:23:27;25.80;59.50
38237;DHT22;50101;49.438;11.098;2023-07-13T01:25:54;25.80;59.50
38237;DHT22;50101;49.438;11.098;2023-07-13T01:28:23;25.80;59.50
38237;DHT22;50101;49.438;11.098;2023-07-13T01:30:49;25.80;59.40
38237;DHT22;50101;49.438;11.098;2023-07-13T01:33:17;25.80;59.40
38237;DHT22;50101;49.438;11.098;2023-07-13T01:35:46;25.80;59.40
38237;DHT22;50101;49.438;11.098;2023-07-13T01:38:18;25.70;59.30
38237;DHT22;50101;49.438;11.098;2023-07-13T01:40:44;25.80;59.40
38237;DHT22;50101;49.438;11.098;2023-07-13T01:43:11;25.80;58.90
38237;DHT22;50101;49.438;11.098;2023-07-13T01:45:38;25.80;59.40
38237;DHT22;50101;49.438;11.098;2023-07-13T01:48:05;25.80;59.30
38237;DHT22;50101;49.438;11.098;2023-07-13T01:50:34;25.80;59.30
38237;DHT22;50101;49.438;11.098;2023-07-13T01:53:00;25.80;59.20
38237;DHT22;50101;49.438;11.098;2023-07-13T01:55:28;25.70;59.10
38237;DHT22;50101;49.438;11.098;2023-07-13T01:57:55;25.80;59.10
38237;DHT22;50101;49.438;11.098;2023-07-13T02:00:22;25.80;59.00
38237;DHT22;50101;49.438;11.098;2023-07-13T02:02:49;25.80;59.00
38237;DHT22;50101;49.438;11.098;2023-07-13T02:05:16;25.80;58.80
38237;DHT22;50101;49.438;11.098;2023-07-13T02:07:43;27.20;60.00
38237;DHT22;50101;49.438;11.098;2023-07-13T02:10:11;25.80;59.10
38237;DHT22;50101;49.438;11.098;2023-07-13T02:12:38;25.80;58.90
38237;DHT22;50101;49.438;11.098;2023-07-13T02:15:05;25.80;58.80
38237;DHT22;50101;49.438;11.098;2023-07-13T02:17:33;25.80;58.70
38237;DHT22;50101;49.438;11.098;2023-07-13T02:19:59;25.80;58.80
38237;DHT22;50101;49.438;11.098;2023-07-13T02:22:26;25.80;58.70
38237;DHT22;50101;49.438;11.098;2023-07-13T02:24:53;25.80;58.40
38237;DHT22;50101;49.438;11.098;2023-07-13T02:27:20;25.80;58.90
38237;DHT22;50101;49.438;11.098;2023-07-13T02:29:46;25.80;58.70
38237;DHT22;50101;49.438;11.098;2023-07-13T02:32:13;25.70;58.50
38237;DHT22;50101;49.438;11.098;2023-07-13T02:34:41;25.70;59.30
38237;DHT22;50101;49.438;11.098;2023-07-13T02:37:08;25.80;58.80
38237;DHT22;50101;49.438;11.098;2023-07-13T02:39:35;25.80;58.70
38237;DHT22;50101;49.438;11.098;2023-07-13T02:42:02;25.70;58.40
38237;DHT22;50101;49.438;11.098;2023-07-13T02:44:29;25.70;58.30
38237;DHT22;50101;49.438;11.098;2023-07-13T02:46:56;25.70;58.30
38237;DHT22;50101;49.438;11.098;2023-07-13T02:49:23;25.70;58.40
38237;DHT22;50101;49.438;11.098;2023-07-13T02:51:50;25.70;58.30
38237;DHT22;50101;49.438;11.098;2023-07-13T02:54:17;25.70;57.70
38237;DHT22;50101;49.438;11.098;2023-07-13T02:56:44;25.70;58.30
38237;DHT22;50101;49.438;11.098;2023-07-13T02:59:11;25.70;58.20
38237;DHT22;50101;49.438;11.098;2023-07-13T03:01:38;25.70;58.30
38237;DHT22;50101;49.438;11.098;2023-07-13T03:04:05;25.70;58.30
38237;DHT22;50101;49.438;11.098;2023-07-13T03:06:33;25.70;58.20
38237;DHT22;50101;49.438;11.098;2023-07-13T03:09:00;25.70;58.20
38237;DHT22;50101;49.438;11.098;2023-07-13T03:11:26;25.70;58.20
38237;DHT22;50101;49.438;11.098;2023-07-13T03:13:54;25.70;58.20
38237;DHT22;50101;49.438;11.098;2023-07-13T03:16:21;25.70;58.20
38237;DHT22;50101;49.438;11.098;2023-07-13T03:18:48;25.70;58.20
38237;DHT22;50101;49.438;11.098;2023-07-13T03:21:15;25.70;58.20
38237;DHT22;50101;49.438;11.098;2023-07-13T03:23:41;25.70;58.80
38237;DHT22;50101;49.438;11.098;2023-07-13T03:26:14;25.70;58.20
38237;DHT22;50101;49.438;11.098;2023-07-13T03:28:41;25.70;58.20
38237;DHT22;50101;49.438;11.098;2023-07-13T03:31:12;25.70;58.20
38237;DHT22;50101;49.438;11.098;2023-07-13T03:33:39;25.70;58.20
38237;DHT22;50101;49.438;11.098;2023-07-13T03:36:07;25.70;58.20
38237;DHT22;50101;49.438;11.098;2023-07-13T03:38:35;25.70;58.10
38237;DHT22;50101;49.438;11.098;2023-07-13T03:41:02;25.70;58.10
38237;DHT22;50101;49.438;11.098;2023-07-13T03:43:28;25.70;58.00
38237;DHT22;50101;49.438;11.098;2023-07-13T03:45:55;25.70;58.00
38237;DHT22;50101;49.438;11.098;2023-07-13T03:48:22;25.60;57.90
38237;DHT22;50101;49.438;11.098;2023-07-13T03:50:49;25.70;57.90
38237;DHT22;50101;49.438;11.098;2023-07-13T03:53:16;25.70;57.90
38237;DHT22;50101;49.438;11.098;2023-07-13T03:55:43;25.70;57.90
38237;DHT22;50101;49.438;11.098;2023-07-13T03:58:28;25.70;58.10
38237;DHT22;50101;49.438;11.098;2023-07-13T04:00:55;25.70;58.10
38237;DHT22;50101;49.438;11.098;2023-07-13T04:03:23;25.70;57.90
38237;DHT22;50101;49.438;11.098;2023-07-13T04:05:50;25.70;58.30
38237;DHT22;50101;49.438;11.098;2023-07-13T04:08:16;25.70;57.90
38237;DHT22;50101;49.438;11.098;2023-07-13T04:10:44;25.60;57.80
38237;DHT22;50101;49.438;11.098;2023-07-13T04:13:10;25.70;57.90
38237;DHT22;50101;49.438;11.098;2023-07-13T04:15:38;25.70;57.90
38237;DHT22;50101;49.438;11.098;2023-07-13T04:18:06;25.70;58.20
38237;DHT22;50101;49.438;11.098;2023-07-13T04:20:33;25.70;57.90
38237;DHT22;50101;49.438;11.098;2023-07-13T04:22:59;25.70;58.20
38237;DHT22;50101;49.438;11.098;2023-07-13T04:25:26;25.70;58.20
38237;DHT22;50101;49.438;11.098;2023-07-13T04:27:53;25.70;58.00
38237;DHT22;50101;49.438;11.098;2023-07-13T04:30:20;25.70;57.70
38237;DHT22;50101;49.438;11.098;2023-07-13T04:32:47;25.70;58.20
38237;DHT22;50101;49.438;11.098;2023-07-13T04:35:14;25.70;57.70
38237;DHT22;50101;49.438;11.098;2023-07-13T04:37:41;25.70;58.20
38237;DHT22;50101;49.438;11.098;2023-07-13T04:40:08;25.70;58.20
38237;DHT22;50101;49.438;11.098;2023-07-13T04:42:38;25.70;58.20
38237;DHT22;50101;49.438;11.098;2023-07-13T04:45:06;25.70;58.20
38237;DHT22;50101;49.438;11.098;2023-07-13T04:47:33;25.70;58.20
38237;DHT22;50101;49.438;11.098;2023-07-13T04:50:00;25.70;58.30
38237;DHT22;50101;49.438;11.098;2023-07-13T04:52:27;25.70;58.50
38237;DHT22;50101;49.438;11.098;2023-07-13T04:54:54;25.70;58.30
38237;DHT22;50101;49.438;11.098;2023-07-13T04:57:21;25.70;58.20
38237;DHT22;50101;49.438;11.098;2023-07-13T04:59:48;25.70;58.30
38237;DHT22;50101;49.438;11.098;2023-07-13T05:02:14;25.60;58.10
38237;DHT22;50101;49.438;11.098;2023-07-13T05:04:41;25.70;57.80
38237;DHT22;50101;49.438;11.098;2023-07-13T05:07:08;25.60;57.80
38237;DHT22;50101;49.438;11.098;2023-07-13T05:09:34;25.70;57.90
38237;DHT22;50101;49.438;11.098;2023-07-13T05:12:01;25.60;57.60
38237;DHT22;50101;49.438;11.098;2023-07-13T05:14:28;25.60;57.10
38237;DHT22;50101;49.438;11.098;2023-07-13T05:16:54;25.70;57.80
38237;DHT22;50101;49.438;11.098;2023-07-13T05:19:23;25.60;57.90
38237;DHT22;50101;49.438;11.098;2023-07-13T05:21:50;25.70;57.80
38237;DHT22;50101;49.438;11.098;2023-07-13T05:24:17;25.60;57.60
38237;DHT22;50101;49.438;11.098;2023-07-13T05:26:51;25.70;57.50
38237;DHT22;50101;49.438;11.098;2023-07-13T05:29:18;25.60;57.70
38237;DHT22;50101;49.438;11.098;2023-07-13T05:31:44;25.60;57.60
38237;DHT22;50101;49.438;11.098;2023-07-13T05:34:11;25.60;57.50
38237;DHT22;50101;49.438;11.098;2023-07-13T05:36:38;25.60;57.40
38237;DHT22;50101;49.438;11.098;2023-07-13T05:39:05;25.70;57.70
38237;DHT22;50101;49.438;11.098;2023-07-13T05:41:32;25.60;57.40
38237;DHT22;50101;49.438;11.098;2023-07-13T05:43:58;25.60;57.20
38237;DHT22;50101;49.438;11.098;2023-07-13T05:46:25;25.60;57.60
38237;DHT22;50101;49.438;11.098;2023-07-13T05:48:52;25.60;57.40
38237;DHT22;50101;49.438;11.098;2023-07-13T05:51:19;25.60;56.90
38237;DHT22;50101;49.438;11.098;2023-07-13T05:53:45;25.60;57.30
38237;DHT22;50101;49.438;11.098;2023-07-13T05:56:12;25.70;57.40
38237;DHT22;50101;49.438;11.098;2023-07-13T05:58:39;25.60;57.40
38237;DHT22;50101;49.438;11.098;2023-07-13T06:01:09;25.60;57.50
38237;DHT22;50101;49.438;11.098;2023-07-13T06:03:37;25.70;57.30
38237;DHT22;50101;49.438;11.098;2023-07-13T06:06:07;25.60;57.30
38237;DHT22;50101;49.438;11.098;2023-07-13T06:08:35;25.60;57.10
38237;DHT22;50101;49.438;11.098;2023-07-13T06:11:04;25.70;57.10
38237;DHT22;50101;49.438;11.098;2023-07-13T06:13:31;25.60;57.00
38237;DHT22;50101;49.438;11.098;2023-07-13T06:15:58;25.60;57.10
38237;DHT22;50101;49.438;11.098;2023-07-13T06:18:25;25.70;57.30
38237;DHT22;50101;49.438;11.098;2023-07-13T06:20:52;25.60;57.30
38237;DHT22;50101;49.438;11.098;2023-07-13T06:23:18;25.70;56.80
38237;DHT22;50101;49.438;11.098;2023-07-13T06:25:45;25.70;57.30
38237;DHT22;50101;49.438;11.098;2023-07-13T06:28:12;25.70;57.30
38237;DHT22;50101;49.438;11.098;2023-07-13T06:30:39;25.70;57.50
38237;DHT22;50101;49.438;11.098;2023-07-13T06:33:06;25.70;57.60
38237;DHT22;50101;49.438;11.098;2023-07-13T06:35:33;25.70;57.50
38237;DHT22;50101;49.438;11.098;2023-07-13T06:38:00;25.70;57.50
38237;DHT22;50101;49.438;11.098;2023-07-13T06:40:27;25.70;57.50
38237;DHT22;50101;49.438;11.098;2023-07-13T06:42:55;25.70;57.60
38237;DHT22;50101;49.438;11.098;2023-07-13T06:45:23;25.70;57.40
38237;DHT22;50101;49.438;11.098;2023-07-13T06:47:49;25.70;57.60
38237;DHT22;50101;49.438;11.098;2023-07-13T06:50:16;25.70;57.70
38237;DHT22;50101;49.438;11.098;2023-07-13T06:52:43;25.70;57.80
38237;DHT22;50101;49.438;11.098;2023-07-13T06:55:09;25.70;57.80
38237;DHT22;50101;49.438;11.098;2023-07-13T06:57:36;25.70;57.80
38237;DHT22;50101;49.438;11.098;2023-07-13T07:00:03;25.70;57.90
38237;DHT22;50101;49.438;11.098;2023-07-13T07:02:31;25.70;57.80
38237;DHT22;50101;49.438;11.098;2023-07-13T07:04:58;25.70;57.90
38237;DHT22;50101;49.438;11.098;2023-07-13T07:07:25;25.70;57.90
38237;DHT22;50101;49.438;11.098;2023-07-13T07:09:51;25.70;57.90
38237;DHT22;50101;49.438;11.098;2023-07-13T07:12:18;25.70;58.00
38237;DHT22;50101;49.438;11.098;2023-07-13T07:14:45;25.70;58.00
38237;DHT22;50101;49.438;11.098;2023-07-13T07:17:11;25.70;58.00
38237;DHT22;50101;49.438;11.098;2023-07-13T07:19:38;25.70;58.00
38237;DHT22;50101;49.438;11.098;2023-07-13T07:22:05;25.70;58.00
38237;DHT22;50101;49.438;11.098;2023-07-13T07:24:32;25.70;58.00
38237;DHT22;50101;49.438;11.098;2023-07-13T07:26:59;25.70;58.00
38237;DHT22;50101;49.438;11.098;2023-07-13T07:29:28;25.70;58.00
38237;DHT22;50101;49.438;11.098;2023-07-13T07:31:59;25.70;58.10
38237;DHT22;50101;49.438;11.098;2023-07-13T07:34:44;25.70;57.60
38237;DHT22;50101;49.438;11.098;2023-07-13T07:37:12;25.70;58.10
38237;DHT22;50101;49.438;11.098;2023-07-13T07:39:43;25.70;58.10
38237;DHT22;50101;49.438;11.098;2023-07-13T07:42:13;25.70;58.10
38237;DHT22;50101;49.438;11.098;2023-07-13T07:44:40;25.70;58.10
38237;DHT22;50101;49.438;11.098;2023-07-13T07:47:08;25.70;58.10
38237;DHT22;50101;49.438;11.098;2023-07-13T07:49:36;25.70;58.10
38237;DHT22;50101;49.438;11.098;2023-07-13T07:52:03;25.70;58.20
38237;DHT22;50101;49.438;11.098;2023-07-13T07:54:30;25.60;58.10
38237;DHT22;50101;49.438;11.098;2023-07-13T07:57:16;25.70;58.20
38237;DHT22;50101;49.438;11.098;2023-07-13T08:00:03;25.70;58.10
38237;DHT22;50101;49.438;11.098;2023-07-13T08:02:34;25.70;57.70
38237;DHT22;50101;49.438;11.098;2023-07-13T08:05:04;25.70;57.70
38237;DHT22;50101;49.438;11.098;2023-07-13T08:07:34;25.70;58.20
38237;DHT22;50101;49.438;11.098;2023-07-13T08:10:01;25.70;58.20
38237;DHT22;50101;49.438;11.098;2023-07-13T08:12:28;25.70;57.70
38237;DHT22;50101;49.438;11.098;2023-07-13T08:14:57;25.70;58.20
38237;DHT22;50101;49.438;11.098;2023-07-13T08:17:25;25.70;58.20
38237;DHT22;50101;49.438;11.098;2023-07-13T08:19:52;25.70;58.10
38237;DHT22;50101;49.438;11.098;2023-07-13T08:22:19;25.70;58.30
38237;DHT22;50101;49.438;11.098;2023-07-13T08:24:46;25.70;58.20
38237;DHT22;50101;49.438;11.098;2023-07-13T08:27:13;25.70;57.70
38237;DHT22;50101;49.438;11.098;2023-07-13T08:29:40;25.70;58.30
38237;DHT22;50101;49.438;11.098;2023-07-13T08:32:07;25.70;58.20
38237;DHT22;50101;49.438;11.098;2023-07-13T08:34:36;25.70;58.20
38237;DHT22;50101;49.438;11.098;2023-07-13T08:37:03;25.70;58.20
38237;DHT22;50101;49.438;11.098;2023-07-13T08:39:31;25.70;58.20
38237;DHT22;50101;49.438;11.098;2023-07-13T08:47:22;25.70;58.20
38237;DHT22;50101;49.438;11.098;2023-07-13T08:49:50;25.70;58.20
38237;DHT22;50101;49.438;11.098;2023-07-13T08:52:46;25.70;58.20
38237;DHT22;50101;49.438;11.098;2023-07-13T08:55:28;25.70;58.20
38237;DHT22;50101;49.438;11.098;2023-07-13T08:58:12;25.70;58.20
38237;DHT22;50101;49.438;11.098;2023-07-13T09:03:52;25.70;57.70
38237;DHT22;50101;49.438;11.098;2023-07-13T09:06:31;25.70;58.20
38237;DHT22;50101;49.438;11.098;2023-07-13T09:09:10;25.70;58.20
38237;DHT22;50101;49.438;11.098;2023-07-13T09:11:49;25.70;58.20
38237;DHT22;50101;49.438;11.098;2023-07-13T09:14:44;25.80;58.20
38237;DHT22;50101;49.438;11.098;2023-07-13T09:17:25;25.80;58.20
38237;DHT22;50101;49.438;11.098;2023-07-13T09:20:00;25.80;58.20
38237;DHT22;50101;49.438;11.098;2023-07-13T09:22:32;25.80;58.20
38237;DHT22;50101;49.438;11.098;2023-07-13T09:25:32;25.80;58.20
38237;DHT22;50101;49.438;11.098;2023-07-13T09:28:05;25.70;58.20
38237;DHT22;50101;49.438;11.098;2023-07-13T09:30:53;25.80;58.20
38237;DHT22;50101;49.438;11.098;2023-07-13T09:33:21;25.80;58.20
38237;DHT22;50101;49.438;11.098;2023-07-13T09:35:49;25.70;58.20
38237;DHT22;50101;49.438;11.098;2023-07-13T09:38:18;25.80;58.20
38237;DHT22;50101;49.438;11.098;2023-07-13T09:44:08;25.80;57.70
38237;DHT22;50101;49.438;11.098;2023-07-13T09:46:43;25.80;58.20
38237;DHT22;50101;49.438;11.098;2023-07-13T09:49:10;25.70;58.20
38237;DHT22;50101;49.438;11.098;2023-07-13T09:51:40;25.80;58.20
38237;DHT22;50101;49.438;11.098;2023-07-13T09:54:20;25.80;58.20
38237;DHT22;50101;49.438;11.098;2023-07-13T09:56:47;25.80;58.20
38237;DHT22;50101;49.438;11.098;2023-07-13T09:59:22;25.80;58.20
38237;DHT22;50101;49.438;11.098;2023-07-13T10:01:50;25.80;58.20
38237;DHT22;50101;49.438;11.098;2023-07-13T10:04:18;25.80;57.70
38237;DHT22;50101;49.438;11.098;2023-07-13T10:06:46;25.80;58.20
38237;DHT22;50101;49.438;11.098;2023-07-13T10:09:17;25.80;58.20
38237;DHT22;50101;49.438;11.098;2023-07-13T10:11:45;25.80;58.20
38237;DHT22;50101;49.438;11.098;2023-07-13T10:14:18;25.80;58.20
38237;DHT22;50101;49.438;11.098;2023-07-13T10:16:47;25.80;58.30
38237;DHT22;50101;49.438;11.098;2023-07-13T10:19:25;25.80;58.20
38237;DHT22;50101;49.438;11.098;2023-07-13T10:21:59;25.80;58.20
38237;DHT22;50101;49.438;11.098;2023-07-13T10:24:32;25.80;58.80
38237;DHT22;50101;49.438;11.098;2023-07-13T10:29:36;25.80;57.70
38237;DHT22;50101;49.438;11.098;2023-07-13T10:32:10;25.80;58.20
38237;DHT22;50101;49.438;11.098;2023-07-13T10:34:39;25.80;58.20
38237;DHT22;50101;49.438;11.098;2023-07-13T10:37:15;25.80;58.20
38237;DHT22;50101;49.438;11.098;2023-07-13T10:39:43;25.80;58.20
38237;DHT22;50101;49.438;11.098;2023-07-13T10:42:15;25.80;58.20
38237;DHT22;50101;49.438;11.098;2023-07-13T10:44:45;25.80;58.10
38237;DHT22;50101;49.438;11.098;2023-07-13T10:47:15;25.80;58.20
38237;DHT22;50101;49.438;11.098;2023-07-13T10:49:43;25.90;58.20
38237;DHT22;50101;49.438;11.098;2023-07-13T10:52:40;25.80;58.80
38237;DHT22;50101;49.438;11.098;2023-07-13T10:55:34;25.80;58.20
38237;DHT22;50101;49.438;11.098;2023-07-13T10:58:23;25.80;58.10
38237;DHT22;50101;49.438;11.098;2023-07-13T11:01:07;25.80;58.10
38237;DHT22;50101;49.438;11.098;2023-07-13T11:03:50;25.80;57.60
38237;DHT22;50101;49.438;11.098;2023-07-13T11:06:38;25.80;58.10
38237;DHT22;50101;49.438;11.098;2023-07-13T11:09:32;25.90;58.20
38237;DHT22;50101;49.438;11.098;2023-07-13T11:12:08;25.80;58.20
38237;DHT22;50101;49.438;11.098;2023-07-13T11:14:41;25.90;58.20
38237;DHT22;50101;49.438;11.098;2023-07-13T11:22:45;25.90;58.30
38237;DHT22;50101;49.438;11.098;2023-07-13T11:25:21;25.90;58.30
38237;DHT22;50101;49.438;11.098;2023-07-13T11:36:14;25.90;58.30
38237;DHT22;50101;49.438;11.098;2023-07-13T11:38:43;25.90;58.30
38237;DHT22;50101;49.438;11.098;2023-07-13T11:41:21;25.90;58.30
38237;DHT22;50101;49.438;11.098;2023-07-13T11:43:50;25.90;57.80
38237;DHT22;50101;49.438;11.098;2023-07-13T11:46:22;25.90;58.30
38237;DHT22;50101;49.438;11.098;2023-07-13T11:48:50;25.90;58.30
38237;DHT22;50101;49.438;11.098;2023-07-13T11:51:29;25.80;58.20
38237;DHT22;50101;49.438;11.098;2023-07-13T11:54:05;25.90;57.80
38237;DHT22;50101;49.438;11.098;2023-07-13T11:56:33;25.90;58.40
38237;DHT22;50101;49.438;11.098;2023-07-13T11:59:06;25.90;58.30
38237;DHT22;50101;49.438;11.098;2023-07-13T12:01:34;25.90;58.30
38237;DHT22;50101;49.438;11.098;2023-07-13T12:04:03;25.90;57.80
38237;DHT22;50101;49.438;11.098;2023-07-13T12:06:34;25.90;58.30
38237;DHT22;50101;49.438;11.098;2023-07-13T12:09:13;25.90;58.30
38237;DHT22;50101;49.438;11.098;2023-07-13T12:11:41;25.90;58.30
38237;DHT22;50101;49.438;11.098;2023-07-13T12:14:15;25.90;58.40
38237;DHT22;50101;49.438;11.098;2023-07-13T12:16:42;25.90;58.30
38237;DHT22;50101;49.438;11.098;2023-07-13T12:19:27;25.90;58.30
38237;DHT22;50101;49.438;11.098;2023-07-13T12:21:57;25.90;58.30
38237;DHT22;50101;49.438;11.098;2023-07-13T12:24:25;25.90;58.30
38237;DHT22;50101;49.438;11.098;2023-07-13T12:27:00;25.90;58.30
38237;DHT22;50101;49.438;11.098;2023-07-13T12:29:27;25.90;58.30
38237;DHT22;50101;49.438;11.098;2023-07-13T12:31:54;25.90;57.80
38237;DHT22;50101;49.438;11.098;2023-07-13T12:34:24;25.90;58.40
38237;DHT22;50101;49.438;11.098;2023-07-13T12:36:56;25.90;58.30
38237;DHT22;50101;49.438;11.098;2023-07-13T12:39:48;25.90;58.40
38237;DHT22;50101;49.438;11.098;2023-07-13T12:44:57;25.90;58.40
38237;DHT22;50101;49.438;11.098;2023-07-13T12:47:25;25.80;58.30
38237;DHT22;50101;49.438;11.098;2023-07-13T12:49:58;25.90;58.40
38237;DHT22;50101;49.438;11.098;2023-07-13T12:52:31;25.90;58.40
38237;DHT22;50101;49.438;11.098;2023-07-13T12:55:21;25.90;58.40
38237;DHT22;50101;49.438;11.098;2023-07-13T12:57:56;25.90;58.40
38237;DHT22;50101;49.438;11.098;2023-07-13T13:00:29;25.90;58.40
38237;DHT22;50101;49.438;11.098;2023-07-13T13:03:05;25.90;58.40
38237;DHT22;50101;49.438;11.098;2023-07-13T13:06:27;25.90;58.40
38237;DHT22;50101;49.438;11.098;2023-07-13T13:08:57;25.90;58.40
38237;DHT22;50101;49.438;11.098;2023-07-13T13:11:29;25.90;58.40
38237;DHT22;50101;49.438;11.098;2023-07-13T13:13:56;25.90;57.80
38237;DHT22;50101;49.438;11.098;2023-07-13T13:19:01;25.90;58.40
38237;DHT22;50101;49.438;11.098;2023-07-13T13:21:32;25.90;58.40
38237;DHT22;50101;49.438;11.098;2023-07-13T13:23:59;25.90;58.40
38237;DHT22;50101;49.438;11.098;2023-07-13T13:26:25;25.90;58.40
38237;DHT22;50101;49.438;11.098;2023-07-13T13:28:52;25.90;58.40
38237;DHT22;50101;49.438;11.098;2023-07-13T13:31:19;25.90;58.40
38237;DHT22;50101;49.438;11.098;2023-07-13T13:33:46;25.90;57.90
38237;DHT22;50101;49.438;11.098;2023-07-13T13:36:15;25.90;58.40
38237;DHT22;50101;49.438;11.098;2023-07-13T13:38:42;25.90;58.40
38237;DHT22;50101;49.438;11.098;2023-07-13T13:41:11;25.90;58.40
38237;DHT22;50101;49.438;11.098;2023-07-13T13:43:41;25.90;58.40
38237;DHT22;50101;49.438;11.098;2023-07-13T13:46:18;25.90;58.40
38237;DHT22;50101;49.438;11.098;2023-07-13T13:48:45;25.90;58.40
38237;DHT22;50101;49.438;11.098;2023-07-13T13:51:18;25.90;58.40
38237;DHT22;50101;49.438;11.098;2023-07-13T13:53:46;25.90;58.40
38237;DHT22;50101;49.438;11.098;2023-07-13T13:56:18;25.90;58.40
38237;DHT22;50101;49.438;11.098;2023-07-13T13:58:45;25.90;58.40
38237;DHT22;50101;49.438;11.098;2023-07-13T14:01:22;25.90;58.40
38237;DHT22;50101;49.438;11.098;2023-07-13T14:03:51;25.90;57.80
38237;DHT22;50101;49.438;11.098;2023-07-13T14:06:18;25.90;58.40
38237;DHT22;50101;49.438;11.098;2023-07-13T14:08:45;25.90;58.40
38237;DHT22;50101;49.438;11.098;2023-07-13T14:11:16;26.00;58.40
38237;DHT22;50101;49.438;11.098;2023-07-13T14:13:45;26.00;58.40
38237;DHT22;50101;49.438;11.098;2023-07-13T14:16:18;26.00;58.40
38237;DHT22;50101;49.438;11.098;2023-07-13T14:18:46;25.90;58.40
38237;DHT22;50101;49.438;11.098;2023-07-13T14:21:15;25.90;58.40
38237;DHT22;50101;49.438;11.098;2023-07-13T14:23:44;25.90;58.40
38237;DHT22;50101;49.438;11.098;2023-07-13T14:26:20;25.90;58.40
38237;DHT22;50101;49.438;11.098;2023-07-13T14:28:51;25.90;58.40
38237;DHT22;50101;49.438;11.098;2023-07-13T14:31:18;26.00;58.40
38237;DHT22;50101;49.438;11.098;2023-07-13T14:33:46;25.90;57.80
38237;DHT22;50101;49.438;11.098;2023-07-13T14:36:32;25.90;58.40
38237;DHT22;50101;49.438;11.098;2023-07-13T14:41:57;25.90;58.40
38237;DHT22;50101;49.438;11.098;2023-07-13T14:44:29;25.90;59.00
38237;DHT22;50101;49.438;11.098;2023-07-13T14:46:58;25.90;58.20
38237;DHT22;50101;49.438;11.098;2023-07-13T14:49:30;25.90;58.30
38237;DHT22;50101;49.438;11.098;2023-07-13T14:51:59;25.90;58.30
38237;DHT22;50101;49.438;11.098;2023-07-13T14:54:27;25.90;58.40
38237;DHT22;50101;49.438;11.098;2023-07-13T14:56:54;25.90;58.30
38237;DHT22;50101;49.438;11.098;2023-07-13T14:59:21;25.90;58.30
38237;DHT22;50101;49.438;11.098;2023-07-13T15:01:48;25.90;58.30
38237;DHT22;50101;49.438;11.098;2023-07-13T15:04:16;25.90;58.40
38237;DHT22;50101;49.438;11.098;2023-07-13T15:06:58;25.90;58.40
38237;DHT22;50101;49.438;11.098;2023-07-13T15:09:26;25.90;58.30
38237;DHT22;50101;49.438;11.098;2023-07-13T15:11:57;25.90;58.30
38237;DHT22;50101;49.438;11.098;2023-07-13T15:14:25;25.90;58.30
38237;DHT22;50101;49.438;11.098;2023-07-13T15:16:54;25.90;58.30
38237;DHT22;50101;49.438;11.098;2023-07-13T15:19:21;25.90;58.30
38237;DHT22;50101;49.438;11.098;2023-07-13T15:21:50;25.90;58.30
38237;DHT22;50101;49.438;11.098;2023-07-13T15:24:18;25.90;58.40
38237;DHT22;50101;49.438;11.098;2023-07-13T15:26:45;25.90;57.80
38237;DHT22;50101;49.438;11.098;2023-07-13T15:29:13;26.00;58.40
38237;DHT22;50101;49.438;11.098;2023-07-13T15:31:40;26.70;58.80
38237;DHT22;50101;49.438;11.098;2023-07-13T15:34:12;25.90;57.80
38237;DHT22;50101;49.438;11.098;2023-07-13T15:36:40;25.90;58.40
38237;DHT22;50101;49.438;11.098;2023-07-13T15:39:08;25.90;58.00
38237;DHT22;50101;49.438;11.098;2023-07-13T15:41:40;25.90;58.40
38237;DHT22;50101;49.438;11.098;2023-07-13T15:44:34;25.90;57.80
38237;DHT22;50101;49.438;11.098;2023-07-13T15:47:02;26.00;58.40
38237;DHT22;50101;49.438;11.098;2023-07-13T15:49:29;25.90;58.40
38237;DHT22;50101;49.438;11.098;2023-07-13T15:51:56;25.90;58.40
38237;DHT22;50101;49.438;11.098;2023-07-13T15:54:23;26.00;58.40
38237;DHT22;50101;49.438;11.098;2023-07-13T15:56:55;25.90;58.40
38237;DHT22;50101;49.438;11.098;2023-07-13T15:59:24;26.00;58.40
38237;DHT22;50101;49.438;11.098;2023-07-13T16:01:51;26.00;58.40
38237;DHT22;50101;49.438;11.098;2023-07-13T16:04:17;25.90;58.40
38237;DHT22;50101;49.438;11.098;2023-07-13T16:06:46;25.90;58.40
38237;DHT22;50101;49.438;11.098;2023-07-13T16:09:19;25.90;58.40
38237;DHT22;50101;49.438;11.098;2023-07-13T16:11:47;25.90;58.40